sensor_id;sensor_type;location;lat;lon;timestamp;P1;durP1;ratioP1;P2;durP2;ratioP2
33738;SDS011;20063;51.730;11.110;2023-06-19T00:00:10;6.10;;;4.80;;
33738;SDS011;20063;51.730;11.110;2023-06-19T00:02:42;8.00;;;5.03;;
33738;SDS011;20063;51.730;11.110;2023-06-19T00:05:08;6.13;;;4.63;;
33738;SDS011;20063;51.730;11.110;2023-06-19T00:07:37;4.53;;;3.90;;
33738;SDS011;20063;51.730;11.110;2023-06-19T00:10:04;6.30;;;5.00;;
33738;SDS011;20063;51.730;11.110;2023-06-19T00:12:30;9.32;;;5.03;;
33738;SDS011;20063;51.730;11.110;2023-06-19T00:14:55;6.00;;;4.75;;
33738;SDS011;20063;51.730;11.110;2023-06-19T00:17:21;10.07;;;5.00;;
33738;SDS011;20063;51.730;11.110;2023-06-19T00:19:47;7.00;;;5.07;;
33738;SDS011;20063;51.730;11.110;2023-06-19T00:22:13;8.82;;;5.32;;
33738;SDS011;20063;51.730;11.110;2023-06-19T00:24:44;10.77;;;5.45;;
33738;SDS011;20063;51.730;11.110;2023-06-19T00:27:09;7.50;;;4.90;;
33738;SDS011;20063;51.730;11.110;2023-06-19T00:29:35;7.07;;;4.97;;
33738;SDS011;20063;51.730;11.110;2023-06-19T00:32:00;6.30;;;4.85;;
33738;SDS011;20063;51.730;11.110;2023-06-19T00:34:28;7.75;;;5.15;;
33738;SDS011;20063;51.730;11.110;2023-06-19T00:36:54;11.07;;;6.70;;
33738;SDS011;20063;51.730;11.110;2023-06-19T00:39:22;7.05;;;5.47;;
33738;SDS011;20063;51.730;11.110;2023-06-19T00:41:49;8.85;;;5.13;;
33738;SDS011;20063;51.730;11.110;2023-06-19T00:44:16;8.88;;;6.07;;
33738;SDS011;20063;51.730;11.110;2023-06-19T00:46:42;7.00;;;5.20;;
33738;SDS011;20063;51.730;11.110;2023-06-19T00:49:08;7.40;;;5.55;;
33738;SDS011;20063;51.730;11.110;2023-06-19T00:51:33;9.57;;;5.55;;
33738;SDS011;20063;51.730;11.110;2023-06-19T00:53:59;6.45;;;5.00;;
33738;SDS011;20063;51.730;11.110;2023-06-19T00:56:25;11.50;;;6.05;;
33738;SDS011;20063;51.730;11.110;2023-06-19T00:58:54;6.78;;;5.47;;
33738;SDS011;20063;51.730;11.110;2023-06-19T01:01:20;10.43;;;6.35;;
33738;SDS011;20063;51.730;11.110;2023-06-19T01:03:48;8.63;;;5.25;;
33738;SDS011;20063;51.730;11.110;2023-06-19T01:06:15;9.02;;;5.90;;
33738;SDS011;20063;51.730;11.110;2023-06-19T01:11:28;7.22;;;5.55;;
33738;SDS011;20063;51.730;11.110;2023-06-19T01:14:01;9.23;;;5.75;;
33738;SDS011;20063;51.730;11.110;2023-06-19T01:16:33;10.73;;;6.43;;
33738;SDS011;20063;51.730;11.110;2023-06-19T01:19:00;11.40;;;6.10;;
33738;SDS011;20063;51.730;11.110;2023-06-19T01:21:25;8.63;;;5.80;;
33738;SDS011;20063;51.730;11.110;2023-06-19T01:23:51;8.50;;;6.13;;
33738;SDS011;20063;51.730;11.110;2023-06-19T01:26:17;7.40;;;5.78;;
33738;SDS011;20063;51.730;11.110;2023-06-19T01:28:43;9.93;;;6.35;;
33738;SDS011;20063;51.730;11.110;2023-06-19T01:34:22;9.90;;;5.32;;
33738;SDS011;20063;51.730;11.110;2023-06-19T01:36:50;7.55;;;5.60;;
33738;SDS011;20063;51.730;11.110;2023-06-19T01:39:17;8.40;;;6.00;;
33738;SDS011;20063;51.730;11.110;2023-06-19T01:41:45;8.18;;;5.70;;
33738;SDS011;20063;51.730;11.110;2023-06-19T01:44:12;6.82;;;5.30;;
33738;SDS011;20063;51.730;11.110;2023-06-19T01:46:38;8.50;;;5.22;;
33738;SDS011;20063;51.730;11.110;2023-06-19T01:49:07;9.02;;;6.30;;
33738;SDS011;20063;51.730;11.110;2023-06-19T01:51:34;8.80;;;6.32;;
33738;SDS011;20063;51.730;11.110;2023-06-19T01:54:00;10.02;;;5.97;;
33738;SDS011;20063;51.730;11.110;2023-06-19T01:56:26;8.10;;;5.47;;
33738;SDS011;20063;51.730;11.110;2023-06-19T01:58:52;8.98;;;6.20;;
33738;SDS011;20063;51.730;11.110;2023-06-19T02:01:20;7.15;;;5.80;;
33738;SDS011;20063;51.730;11.110;2023-06-19T02:03:46;9.43;;;6.47;;
33738;SDS011;20063;51.730;11.110;2023-06-19T02:06:11;7.60;;;6.00;;
33738;SDS011;20063;51.730;11.110;2023-06-19T02:08:37;8.55;;;5.80;;
33738;SDS011;20063;51.730;11.110;2023-06-19T02:11:02;8.93;;;5.65;;
33738;SDS011;20063;51.730;11.110;2023-06-19T02:13:28;11.95;;;6.47;;
33738;SDS011;20063;51.730;11.110;2023-06-19T02:15:54;6.38;;;4.95;;
33738;SDS011;20063;51.730;11.110;2023-06-19T02:18:19;11.13;;;6.00;;
33738;SDS011;20063;51.730;11.110;2023-06-19T02:20:45;12.10;;;6.32;;
33738;SDS011;20063;51.730;11.110;2023-06-19T02:23:10;6.50;;;5.60;;
33738;SDS011;20063;51.730;11.110;2023-06-19T02:25:36;7.40;;;5.40;;
33738;SDS011;20063;51.730;11.110;2023-06-19T02:28:01;7.55;;;5.47;;
33738;SDS011;20063;51.730;11.110;2023-06-19T02:30:28;8.30;;;5.35;;
33738;SDS011;20063;51.730;11.110;2023-06-19T02:32:54;6.65;;;5.55;;
33738;SDS011;20063;51.730;11.110;2023-06-19T02:35:19;7.32;;;5.97;;
33738;SDS011;20063;51.730;11.110;2023-06-19T02:37:45;6.63;;;5.85;;
33738;SDS011;20063;51.730;11.110;2023-06-19T02:40:14;7.85;;;5.65;;
33738;SDS011;20063;51.730;11.110;2023-06-19T02:42:39;7.85;;;6.40;;
33738;SDS011;20063;51.730;11.110;2023-06-19T02:45:05;11.23;;;6.35;;
33738;SDS011;20063;51.730;11.110;2023-06-19T02:47:32;11.20;;;6.40;;
33738;SDS011;20063;51.730;11.110;2023-06-19T02:49:58;8.35;;;5.85;;
33738;SDS011;20063;51.730;11.110;2023-06-19T02:52:25;6.97;;;5.55;;
33738;SDS011;20063;51.730;11.110;2023-06-19T02:54:51;10.45;;;5.95;;
33738;SDS011;20063;51.730;11.110;2023-06-19T02:57:17;15.23;;;6.38;;
33738;SDS011;20063;51.730;11.110;2023-06-19T02:59:42;11.05;;;6.72;;
33738;SDS011;20063;51.730;11.110;2023-06-19T03:02:08;9.57;;;6.55;;
33738;SDS011;20063;51.730;11.110;2023-06-19T03:04:34;9.05;;;6.57;;
33738;SDS011;20063;51.730;11.110;2023-06-19T03:06:59;9.07;;;6.07;;
33738;SDS011;20063;51.730;11.110;2023-06-19T03:09:25;8.48;;;5.38;;
33738;SDS011;20063;51.730;11.110;2023-06-19T03:11:51;8.63;;;6.22;;
33738;SDS011;20063;51.730;11.110;2023-06-19T03:14:17;11.00;;;5.78;;
33738;SDS011;20063;51.730;11.110;2023-06-19T03:16:42;10.18;;;6.38;;
33738;SDS011;20063;51.730;11.110;2023-06-19T03:19:08;8.88;;;6.38;;
33738;SDS011;20063;51.730;11.110;2023-06-19T03:21:33;7.82;;;6.03;;
33738;SDS011;20063;51.730;11.110;2023-06-19T03:24:00;8.40;;;6.53;;
33738;SDS011;20063;51.730;11.110;2023-06-19T03:26:25;10.65;;;5.85;;
33738;SDS011;20063;51.730;11.110;2023-06-19T03:28:52;8.70;;;6.28;;
33738;SDS011;20063;51.730;11.110;2023-06-19T03:31:18;10.20;;;6.45;;
33738;SDS011;20063;51.730;11.110;2023-06-19T03:33:43;7.45;;;5.38;;
33738;SDS011;20063;51.730;11.110;2023-06-19T03:36:09;11.27;;;6.32;;
33738;SDS011;20063;51.730;11.110;2023-06-19T03:38:34;7.80;;;6.25;;
33738;SDS011;20063;51.730;11.110;2023-06-19T03:41:01;10.07;;;5.97;;
33738;SDS011;20063;51.730;11.110;2023-06-19T03:43:27;7.78;;;5.38;;
33738;SDS011;20063;51.730;11.110;2023-06-19T03:45:52;8.20;;;6.20;;
33738;SDS011;20063;51.730;11.110;2023-06-19T03:48:18;8.15;;;6.15;;
33738;SDS011;20063;51.730;11.110;2023-06-19T03:50:43;9.90;;;5.57;;
33738;SDS011;20063;51.730;11.110;2023-06-19T03:53:09;12.82;;;7.15;;
33738;SDS011;20063;51.730;11.110;2023-06-19T03:55:34;10.52;;;6.70;;
33738;SDS011;20063;51.730;11.110;2023-06-19T03:58:00;8.82;;;6.60;;
33738;SDS011;20063;51.730;11.110;2023-06-19T04:00:26;10.45;;;6.97;;
33738;SDS011;20063;51.730;11.110;2023-06-19T04:02:51;8.57;;;6.65;;
33738;SDS011;20063;51.730;11.110;2023-06-19T04:05:17;6.90;;;6.20;;
33738;SDS011;20063;51.730;11.110;2023-06-19T04:07:43;10.30;;;6.90;;
33738;SDS011;20063;51.730;11.110;2023-06-19T04:10:08;14.18;;;8.23;;
33738;SDS011;20063;51.730;11.110;2023-06-19T04:12:36;10.98;;;7.80;;
33738;SDS011;20063;51.730;11.110;2023-06-19T04:15:02;11.70;;;7.00;;
33738;SDS011;20063;51.730;11.110;2023-06-19T04:17:28;10.05;;;6.88;;
33738;SDS011;20063;51.730;11.110;2023-06-19T04:19:53;9.48;;;6.88;;
33738;SDS011;20063;51.730;11.110;2023-06-19T04:22:19;9.73;;;7.57;;
33738;SDS011;20063;51.730;11.110;2023-06-19T04:24:44;11.25;;;7.43;;
33738;SDS011;20063;51.730;11.110;2023-06-19T04:27:10;9.75;;;7.68;;
33738;SDS011;20063;51.730;11.110;2023-06-19T04:29:35;10.02;;;7.20;;
33738;SDS011;20063;51.730;11.110;2023-06-19T04:32:02;9.55;;;7.03;;
33738;SDS011;20063;51.730;11.110;2023-06-19T04:34:36;10.65;;;7.93;;
33738;SDS011;20063;51.730;11.110;2023-06-19T04:37:02;8.98;;;7.47;;
33738;SDS011;20063;51.730;11.110;2023-06-19T04:39:28;10.13;;;7.53;;
33738;SDS011;20063;51.730;11.110;2023-06-19T04:41:54;10.85;;;7.22;;
33738;SDS011;20063;51.730;11.110;2023-06-19T04:44:19;8.07;;;6.32;;
33738;SDS011;20063;51.730;11.110;2023-06-19T04:46:45;9.13;;;6.75;;
33738;SDS011;20063;51.730;11.110;2023-06-19T04:49:11;10.43;;;6.93;;
33738;SDS011;20063;51.730;11.110;2023-06-19T04:51:37;8.63;;;6.28;;
33738;SDS011;20063;51.730;11.110;2023-06-19T04:54:03;10.07;;;6.20;;
33738;SDS011;20063;51.730;11.110;2023-06-19T04:56:29;9.93;;;6.57;;
33738;SDS011;20063;51.730;11.110;2023-06-19T04:58:55;11.65;;;6.30;;
33738;SDS011;20063;51.730;11.110;2023-06-19T05:01:24;16.02;;;6.40;;
33738;SDS011;20063;51.730;11.110;2023-06-19T05:03:53;14.90;;;6.95;;
33738;SDS011;20063;51.730;11.110;2023-06-19T05:06:20;11.60;;;6.53;;
33738;SDS011;20063;51.730;11.110;2023-06-19T05:08:47;11.15;;;7.22;;
33738;SDS011;20063;51.730;11.110;2023-06-19T05:11:13;13.20;;;6.60;;
33738;SDS011;20063;51.730;11.110;2023-06-19T05:13:38;11.80;;;6.40;;
33738;SDS011;20063;51.730;11.110;2023-06-19T05:16:04;12.25;;;6.60;;
33738;SDS011;20063;51.730;11.110;2023-06-19T05:18:29;9.23;;;6.43;;
33738;SDS011;20063;51.730;11.110;2023-06-19T05:20:55;7.45;;;5.97;;
33738;SDS011;20063;51.730;11.110;2023-06-19T05:23:21;9.13;;;6.90;;
33738;SDS011;20063;51.730;11.110;2023-06-19T05:25:55;8.75;;;7.00;;
33738;SDS011;20063;51.730;11.110;2023-06-19T05:28:22;6.32;;;5.70;;
33738;SDS011;20063;51.730;11.110;2023-06-19T05:30:48;9.85;;;6.55;;
33738;SDS011;20063;51.730;11.110;2023-06-19T05:33:15;9.18;;;7.00;;
33738;SDS011;20063;51.730;11.110;2023-06-19T05:35:42;8.57;;;6.35;;
33738;SDS011;20063;51.730;11.110;2023-06-19T05:38:08;10.60;;;7.35;;
33738;SDS011;20063;51.730;11.110;2023-06-19T05:40:34;11.27;;;7.43;;
33738;SDS011;20063;51.730;11.110;2023-06-19T05:43:00;10.07;;;7.57;;
33738;SDS011;20063;51.730;11.110;2023-06-19T05:45:26;6.70;;;5.93;;
33738;SDS011;20063;51.730;11.110;2023-06-19T05:47:52;7.50;;;6.10;;
33738;SDS011;20063;51.730;11.110;2023-06-19T05:50:18;9.90;;;5.55;;
33738;SDS011;20063;51.730;11.110;2023-06-19T05:52:43;10.98;;;7.18;;
33738;SDS011;20063;51.730;11.110;2023-06-19T05:55:09;15.00;;;7.90;;
33738;SDS011;20063;51.730;11.110;2023-06-19T05:57:35;8.88;;;7.18;;
33738;SDS011;20063;51.730;11.110;2023-06-19T06:00:01;7.22;;;6.03;;
33738;SDS011;20063;51.730;11.110;2023-06-19T06:02:28;8.85;;;6.70;;
33738;SDS011;20063;51.730;11.110;2023-06-19T06:04:54;13.38;;;7.18;;
33738;SDS011;20063;51.730;11.110;2023-06-19T06:07:21;10.57;;;8.57;;
33738;SDS011;20063;51.730;11.110;2023-06-19T06:09:47;10.55;;;7.57;;
33738;SDS011;20063;51.730;11.110;2023-06-19T06:12:12;12.52;;;8.25;;
33738;SDS011;20063;51.730;11.110;2023-06-19T06:14:39;11.85;;;7.32;;
33738;SDS011;20063;51.730;11.110;2023-06-19T06:17:05;8.02;;;6.93;;
33738;SDS011;20063;51.730;11.110;2023-06-19T06:19:31;11.85;;;8.20;;
33738;SDS011;20063;51.730;11.110;2023-06-19T06:21:56;11.18;;;7.97;;
33738;SDS011;20063;51.730;11.110;2023-06-19T06:24:22;9.32;;;7.95;;
33738;SDS011;20063;51.730;11.110;2023-06-19T06:26:47;9.35;;;7.05;;
33738;SDS011;20063;51.730;11.110;2023-06-19T06:29:13;12.70;;;8.20;;
33738;SDS011;20063;51.730;11.110;2023-06-19T06:31:38;8.15;;;6.70;;
33738;SDS011;20063;51.730;11.110;2023-06-19T06:34:07;9.90;;;7.45;;
33738;SDS011;20063;51.730;11.110;2023-06-19T06:36:33;8.35;;;6.47;;
33738;SDS011;20063;51.730;11.110;2023-06-19T06:38:59;10.77;;;7.10;;
33738;SDS011;20063;51.730;11.110;2023-06-19T06:41:25;7.68;;;6.65;;
33738;SDS011;20063;51.730;11.110;2023-06-19T06:43:50;8.10;;;6.50;;
33738;SDS011;20063;51.730;11.110;2023-06-19T06:46:16;11.13;;;7.60;;
33738;SDS011;20063;51.730;11.110;2023-06-19T06:48:41;14.32;;;8.27;;
33738;SDS011;20063;51.730;11.110;2023-06-19T06:51:07;10.70;;;8.48;;
33738;SDS011;20063;51.730;11.110;2023-06-19T06:53:34;10.50;;;8.02;;
33738;SDS011;20063;51.730;11.110;2023-06-19T06:56:00;9.80;;;8.65;;
33738;SDS011;20063;51.730;11.110;2023-06-19T06:58:27;11.05;;;8.70;;
33738;SDS011;20063;51.730;11.110;2023-06-19T07:00:53;11.85;;;9.32;;
33738;SDS011;20063;51.730;11.110;2023-06-19T07:03:18;14.93;;;10.70;;
33738;SDS011;20063;51.730;11.110;2023-06-19T07:05:44;12.35;;;9.52;;
33738;SDS011;20063;51.730;11.110;2023-06-19T07:08:10;13.48;;;9.73;;
33738;SDS011;20063;51.730;11.110;2023-06-19T07:10:36;15.52;;;9.02;;
33738;SDS011;20063;51.730;11.110;2023-06-19T07:13:02;12.35;;;8.90;;
33738;SDS011;20063;51.730;11.110;2023-06-19T07:15:28;9.63;;;7.70;;
33738;SDS011;20063;51.730;11.110;2023-06-19T07:17:54;17.17;;;10.40;;
33738;SDS011;20063;51.730;11.110;2023-06-19T07:20:21;12.00;;;10.70;;
33738;SDS011;20063;51.730;11.110;2023-06-19T07:22:50;11.63;;;8.85;;
33738;SDS011;20063;51.730;11.110;2023-06-19T07:25:17;12.50;;;10.23;;
33738;SDS011;20063;51.730;11.110;2023-06-19T07:27:43;14.27;;;11.13;;
33738;SDS011;20063;51.730;11.110;2023-06-19T07:30:09;14.10;;;9.88;;
33738;SDS011;20063;51.730;11.110;2023-06-19T07:32:36;14.95;;;10.65;;
33738;SDS011;20063;51.730;11.110;2023-06-19T07:35:05;18.13;;;10.65;;
33738;SDS011;20063;51.730;11.110;2023-06-19T07:37:32;11.95;;;9.70;;
33738;SDS011;20063;51.730;11.110;2023-06-19T07:39:57;11.45;;;8.93;;
33738;SDS011;20063;51.730;11.110;2023-06-19T07:42:23;11.75;;;9.70;;
33738;SDS011;20063;51.730;11.110;2023-06-19T07:44:49;10.80;;;8.70;;
33738;SDS011;20063;51.730;11.110;2023-06-19T07:47:15;9.90;;;8.52;;
33738;SDS011;20063;51.730;11.110;2023-06-19T07:49:41;9.23;;;7.72;;
33738;SDS011;20063;51.730;11.110;2023-06-19T07:52:07;10.20;;;8.13;;
33738;SDS011;20063;51.730;11.110;2023-06-19T07:54:34;12.30;;;8.75;;
33738;SDS011;20063;51.730;11.110;2023-06-19T07:57:00;12.63;;;9.13;;
33738;SDS011;20063;51.730;11.110;2023-06-19T07:59:26;15.50;;;9.82;;
33738;SDS011;20063;51.730;11.110;2023-06-19T08:01:52;12.57;;;9.60;;
33738;SDS011;20063;51.730;11.110;2023-06-19T08:04:17;13.73;;;10.55;;
33738;SDS011;20063;51.730;11.110;2023-06-19T08:06:43;12.63;;;8.90;;
33738;SDS011;20063;51.730;11.110;2023-06-19T08:09:08;11.77;;;9.52;;
33738;SDS011;20063;51.730;11.110;2023-06-19T08:11:34;15.40;;;9.05;;
33738;SDS011;20063;51.730;11.110;2023-06-19T08:14:00;10.73;;;8.52;;
33738;SDS011;20063;51.730;11.110;2023-06-19T08:16:26;8.73;;;7.68;;
33738;SDS011;20063;51.730;11.110;2023-06-19T08:18:51;11.38;;;8.63;;
33738;SDS011;20063;51.730;11.110;2023-06-19T08:21:17;13.13;;;8.55;;
33738;SDS011;20063;51.730;11.110;2023-06-19T08:23:45;11.40;;;9.18;;
33738;SDS011;20063;51.730;11.110;2023-06-19T08:26:10;11.35;;;8.70;;
33738;SDS011;20063;51.730;11.110;2023-06-19T08:28:36;11.23;;;8.77;;
33738;SDS011;20063;51.730;11.110;2023-06-19T08:31:02;11.02;;;8.57;;
33738;SDS011;20063;51.730;11.110;2023-06-19T08:33:28;11.13;;;8.25;;
33738;SDS011;20063;51.730;11.110;2023-06-19T08:35:53;10.23;;;8.48;;
33738;SDS011;20063;51.730;11.110;2023-06-19T08:38:19;16.25;;;12.77;;
33738;SDS011;20063;51.730;11.110;2023-06-19T08:40:45;25.95;;;12.32;;
33738;SDS011;20063;51.730;11.110;2023-06-19T08:43:11;18.27;;;12.15;;
33738;SDS011;20063;51.730;11.110;2023-06-19T08:45:36;17.10;;;10.52;;
33738;SDS011;20063;51.730;11.110;2023-06-19T08:48:03;13.55;;;9.90;;
33738;SDS011;20063;51.730;11.110;2023-06-19T08:50:32;14.07;;;9.85;;
33738;SDS011;20063;51.730;11.110;2023-06-19T08:52:58;13.65;;;10.02;;
33738;SDS011;20063;51.730;11.110;2023-06-19T08:55:24;11.85;;;9.68;;
33738;SDS011;20063;51.730;11.110;2023-06-19T08:57:50;15.70;;;9.80;;
33738;SDS011;20063;51.730;11.110;2023-06-19T09:00:26;14.40;;;9.23;;
33738;SDS011;20063;51.730;11.110;2023-06-19T09:02:59;11.63;;;9.10;;
33738;SDS011;20063;51.730;11.110;2023-06-19T09:05:29;11.60;;;9.40;;
33738;SDS011;20063;51.730;11.110;2023-06-19T09:07:56;13.13;;;8.23;;
33738;SDS011;20063;51.730;11.110;2023-06-19T09:10:26;13.18;;;8.27;;
33738;SDS011;20063;51.730;11.110;2023-06-19T09:13:01;16.83;;;8.85;;
33738;SDS011;20063;51.730;11.110;2023-06-19T09:15:29;12.13;;;7.88;;
33738;SDS011;20063;51.730;11.110;2023-06-19T09:18:06;13.70;;;8.48;;
33738;SDS011;20063;51.730;11.110;2023-06-19T09:20:34;13.27;;;10.52;;
33738;SDS011;20063;51.730;11.110;2023-06-19T09:23:08;10.77;;;8.55;;
33738;SDS011;20063;51.730;11.110;2023-06-19T09:25:47;11.23;;;9.65;;
33738;SDS011;20063;51.730;11.110;2023-06-19T09:28:24;11.77;;;8.55;;
33738;SDS011;20063;51.730;11.110;2023-06-19T09:30:54;12.13;;;8.20;;
33738;SDS011;20063;51.730;11.110;2023-06-19T09:33:20;11.90;;;8.13;;
33738;SDS011;20063;51.730;11.110;2023-06-19T09:35:45;12.27;;;9.30;;
33738;SDS011;20063;51.730;11.110;2023-06-19T09:38:14;11.95;;;8.15;;
33738;SDS011;20063;51.730;11.110;2023-06-19T09:40:43;10.40;;;8.18;;
33738;SDS011;20063;51.730;11.110;2023-06-19T09:43:11;11.30;;;8.73;;
33738;SDS011;20063;51.730;11.110;2023-06-19T09:45:42;10.80;;;8.98;;
33738;SDS011;20063;51.730;11.110;2023-06-19T09:48:10;15.73;;;8.55;;
33738;SDS011;20063;51.730;11.110;2023-06-19T09:50:39;15.95;;;8.30;;
33738;SDS011;20063;51.730;11.110;2023-06-19T09:53:08;11.52;;;8.50;;
33738;SDS011;20063;51.730;11.110;2023-06-19T09:55:35;12.52;;;8.00;;
33738;SDS011;20063;51.730;11.110;2023-06-19T09:58:02;16.58;;;9.63;;
33738;SDS011;20063;51.730;11.110;2023-06-19T10:00:30;16.45;;;8.65;;
33738;SDS011;20063;51.730;11.110;2023-06-19T10:02:57;13.90;;;9.38;;
33738;SDS011;20063;51.730;11.110;2023-06-19T10:05:31;12.70;;;8.13;;
33738;SDS011;20063;51.730;11.110;2023-06-19T10:07:57;10.57;;;7.47;;
33738;SDS011;20063;51.730;11.110;2023-06-19T10:10:25;8.32;;;7.15;;
33738;SDS011;20063;51.730;11.110;2023-06-19T10:12:58;9.07;;;7.45;;
33738;SDS011;20063;51.730;11.110;2023-06-19T10:15:25;11.50;;;7.90;;
33738;SDS011;20063;51.730;11.110;2023-06-19T10:17:53;11.32;;;8.18;;
33738;SDS011;20063;51.730;11.110;2023-06-19T10:23:01;13.40;;;7.95;;
33738;SDS011;20063;51.730;11.110;2023-06-19T10:25:28;9.93;;;8.10;;
33738;SDS011;20063;51.730;11.110;2023-06-19T10:27:56;10.50;;;8.13;;
33738;SDS011;20063;51.730;11.110;2023-06-19T10:30:22;9.93;;;8.10;;
33738;SDS011;20063;51.730;11.110;2023-06-19T10:32:48;15.05;;;8.05;;
33738;SDS011;20063;51.730;11.110;2023-06-19T10:35:14;11.05;;;7.97;;
33738;SDS011;20063;51.730;11.110;2023-06-19T10:37:49;11.30;;;8.63;;
33738;SDS011;20063;51.730;11.110;2023-06-19T10:40:15;11.20;;;7.93;;
33738;SDS011;20063;51.730;11.110;2023-06-19T10:42:41;12.90;;;8.68;;
33738;SDS011;20063;51.730;11.110;2023-06-19T10:45:11;14.70;;;8.30;;
33738;SDS011;20063;51.730;11.110;2023-06-19T10:47:38;8.77;;;7.65;;
33738;SDS011;20063;51.730;11.110;2023-06-19T10:50:14;8.77;;;7.00;;
33738;SDS011;20063;51.730;11.110;2023-06-19T10:52:44;7.10;;;6.38;;
33738;SDS011;20063;51.730;11.110;2023-06-19T10:55:10;9.20;;;7.18;;
33738;SDS011;20063;51.730;11.110;2023-06-19T10:57:37;9.60;;;7.05;;
33738;SDS011;20063;51.730;11.110;2023-06-19T11:00:04;11.65;;;7.57;;
33738;SDS011;20063;51.730;11.110;2023-06-19T11:02:38;7.55;;;6.07;;
33738;SDS011;20063;51.730;11.110;2023-06-19T11:05:09;7.93;;;6.22;;
33738;SDS011;20063;51.730;11.110;2023-06-19T11:07:35;12.23;;;7.40;;
33738;SDS011;20063;51.730;11.110;2023-06-19T11:10:02;9.15;;;7.70;;
33738;SDS011;20063;51.730;11.110;2023-06-19T11:12:29;7.38;;;6.65;;
33738;SDS011;20063;51.730;11.110;2023-06-19T11:15:02;12.52;;;6.25;;
33738;SDS011;20063;51.730;11.110;2023-06-19T11:17:28;9.80;;;6.60;;
33738;SDS011;20063;51.730;11.110;2023-06-19T11:19:56;10.98;;;6.70;;
33738;SDS011;20063;51.730;11.110;2023-06-19T11:22:33;12.63;;;6.18;;
33738;SDS011;20063;51.730;11.110;2023-06-19T11:25:03;8.80;;;5.97;;
33738;SDS011;20063;51.730;11.110;2023-06-19T11:27:30;9.27;;;6.70;;
33738;SDS011;20063;51.730;11.110;2023-06-19T11:29:59;12.05;;;6.82;;
33738;SDS011;20063;51.730;11.110;2023-06-19T11:32:30;7.47;;;5.80;;
33738;SDS011;20063;51.730;11.110;2023-06-19T11:34:56;6.80;;;5.20;;
33738;SDS011;20063;51.730;11.110;2023-06-19T11:37:22;8.48;;;5.45;;
33738;SDS011;20063;51.730;11.110;2023-06-19T11:39:49;5.28;;;4.78;;
33738;SDS011;20063;51.730;11.110;2023-06-19T11:42:15;7.90;;;5.28;;
33738;SDS011;20063;51.730;11.110;2023-06-19T11:44:53;6.22;;;4.95;;
33738;SDS011;20063;51.730;11.110;2023-06-19T11:47:19;9.38;;;5.40;;
33738;SDS011;20063;51.730;11.110;2023-06-19T11:49:47;10.93;;;5.10;;
33738;SDS011;20063;51.730;11.110;2023-06-19T11:52:14;10.38;;;5.75;;
33738;SDS011;20063;51.730;11.110;2023-06-19T11:54:40;11.77;;;6.05;;
33738;SDS011;20063;51.730;11.110;2023-06-19T11:57:05;7.82;;;6.47;;
33738;SDS011;20063;51.730;11.110;2023-06-19T11:59:31;12.27;;;6.55;;
33738;SDS011;20063;51.730;11.110;2023-06-19T12:01:58;12.02;;;6.15;;
33738;SDS011;20063;51.730;11.110;2023-06-19T12:04:24;9.55;;;6.30;;
33738;SDS011;20063;51.730;11.110;2023-06-19T12:06:50;10.88;;;6.95;;
33738;SDS011;20063;51.730;11.110;2023-06-19T12:09:17;9.80;;;6.97;;
33738;SDS011;20063;51.730;11.110;2023-06-19T12:11:43;13.05;;;5.88;;
33738;SDS011;20063;51.730;11.110;2023-06-19T12:14:08;7.88;;;6.38;;
33738;SDS011;20063;51.730;11.110;2023-06-19T12:16:34;9.52;;;6.82;;
33738;SDS011;20063;51.730;11.110;2023-06-19T12:18:59;12.52;;;7.00;;
33738;SDS011;20063;51.730;11.110;2023-06-19T12:21:25;16.70;;;6.97;;
33738;SDS011;20063;51.730;11.110;2023-06-19T12:23:50;9.55;;;6.50;;
33738;SDS011;20063;51.730;11.110;2023-06-19T12:26:16;10.65;;;6.70;;
33738;SDS011;20063;51.730;11.110;2023-06-19T12:28:44;8.40;;;6.90;;
33738;SDS011;20063;51.730;11.110;2023-06-19T12:31:09;7.90;;;6.32;;
33738;SDS011;20063;51.730;11.110;2023-06-19T12:33:35;10.23;;;7.63;;
33738;SDS011;20063;51.730;11.110;2023-06-19T12:36:02;7.28;;;6.57;;
33738;SDS011;20063;51.730;11.110;2023-06-19T12:38:27;11.50;;;6.70;;
33738;SDS011;20063;51.730;11.110;2023-06-19T12:40:53;7.03;;;6.25;;
33738;SDS011;20063;51.730;11.110;2023-06-19T12:43:18;7.68;;;6.68;;
33738;SDS011;20063;51.730;11.110;2023-06-19T12:45:44;7.18;;;6.10;;
33738;SDS011;20063;51.730;11.110;2023-06-19T12:48:10;10.85;;;7.22;;
33738;SDS011;20063;51.730;11.110;2023-06-19T12:50:36;12.48;;;6.40;;
33738;SDS011;20063;51.730;11.110;2023-06-19T12:53:04;11.40;;;6.72;;
33738;SDS011;20063;51.730;11.110;2023-06-19T12:55:30;7.82;;;7.03;;
33738;SDS011;20063;51.730;11.110;2023-06-19T12:57:55;7.70;;;6.70;;
33738;SDS011;20063;51.730;11.110;2023-06-19T13:00:21;9.10;;;6.13;;
33738;SDS011;20063;51.730;11.110;2023-06-19T13:02:46;7.50;;;6.20;;
33738;SDS011;20063;51.730;11.110;2023-06-19T13:05:12;7.53;;;6.47;;
33738;SDS011;20063;51.730;11.110;2023-06-19T13:07:38;9.27;;;7.00;;
33738;SDS011;20063;51.730;11.110;2023-06-19T13:10:03;9.25;;;6.40;;
33738;SDS011;20063;51.730;11.110;2023-06-19T13:12:31;8.68;;;5.85;;
33738;SDS011;20063;51.730;11.110;2023-06-19T13:15:00;10.90;;;6.55;;
33738;SDS011;20063;51.730;11.110;2023-06-19T13:17:25;9.30;;;5.22;;
33738;SDS011;20063;51.730;11.110;2023-06-19T13:19:51;12.63;;;6.38;;
33738;SDS011;20063;51.730;11.110;2023-06-19T13:22:17;7.50;;;6.07;;
33738;SDS011;20063;51.730;11.110;2023-06-19T13:24:42;7.97;;;6.55;;
33738;SDS011;20063;51.730;11.110;2023-06-19T13:27:08;7.35;;;6.65;;
33738;SDS011;20063;51.730;11.110;2023-06-19T13:29:33;14.23;;;6.45;;
33738;SDS011;20063;51.730;11.110;2023-06-19T13:31:59;8.82;;;6.43;;
33738;SDS011;20063;51.730;11.110;2023-06-19T13:34:25;8.07;;;5.75;;
33738;SDS011;20063;51.730;11.110;2023-06-19T13:36:51;11.80;;;6.45;;
33738;SDS011;20063;51.730;11.110;2023-06-19T13:39:17;6.15;;;5.55;;
33738;SDS011;20063;51.730;11.110;2023-06-19T13:41:46;7.18;;;6.47;;
33738;SDS011;20063;51.730;11.110;2023-06-19T13:44:11;8.23;;;6.32;;
33738;SDS011;20063;51.730;11.110;2023-06-19T13:46:37;8.20;;;6.03;;
33738;SDS011;20063;51.730;11.110;2023-06-19T13:49:03;8.45;;;5.72;;
33738;SDS011;20063;51.730;11.110;2023-06-19T13:51:28;7.63;;;6.57;;
33738;SDS011;20063;51.730;11.110;2023-06-19T13:53:54;8.35;;;6.35;;
33738;SDS011;20063;51.730;11.110;2023-06-19T13:56:19;6.35;;;5.75;;
33738;SDS011;20063;51.730;11.110;2023-06-19T13:58:45;14.98;;;6.38;;
33738;SDS011;20063;51.730;11.110;2023-06-19T14:01:11;13.80;;;6.03;;
33738;SDS011;20063;51.730;11.110;2023-06-19T14:03:37;6.93;;;5.82;;
33738;SDS011;20063;51.730;11.110;2023-06-19T14:06:06;8.75;;;6.05;;
33738;SDS011;20063;51.730;11.110;2023-06-19T14:08:32;8.82;;;6.32;;
33738;SDS011;20063;51.730;11.110;2023-06-19T14:10:58;7.55;;;5.82;;
33738;SDS011;20063;51.730;11.110;2023-06-19T14:13:24;9.38;;;6.20;;
33738;SDS011;20063;51.730;11.110;2023-06-19T14:15:49;8.02;;;5.95;;
33738;SDS011;20063;51.730;11.110;2023-06-19T14:18:16;12.68;;;6.05;;
33738;SDS011;20063;51.730;11.110;2023-06-19T14:20:42;8.70;;;5.93;;
33738;SDS011;20063;51.730;11.110;2023-06-19T14:23:08;8.52;;;6.60;;
33738;SDS011;20063;51.730;11.110;2023-06-19T14:25:34;7.00;;;6.10;;
33738;SDS011;20063;51.730;11.110;2023-06-19T14:27:59;7.50;;;6.32;;
33738;SDS011;20063;51.730;11.110;2023-06-19T14:30:25;12.50;;;6.25;;
33738;SDS011;20063;51.730;11.110;2023-06-19T14:32:51;6.97;;;6.28;;